Time;durP1;ratioP1;P1;durP2;ratioP2;P2;SDS_P1;SDS_P2;PMS_P1;PMS_P2;Temp;Humidity;BMP_temperature;BMP_pressure;BME280_temperature;BME280_humidity;BME280_pressure;Samples;Min_cycle;Max_cycle;Signal;HPM_P1;HPM_P2
2023/08/08 00:02:04;;;;;;;2.47;0.80;;;;;;;11.75;100.00;98214.97;15290839;19;20029;-50
2023/08/08 00:07:30;;;;;;;1.70;0.90;;;;;;;11.83;100.00;98199.59;15290624;19;20029;-47
2023/08/08 00:12:54;;;;;;;2.25;0.90;;;;;;;11.77;100.00;98202.97;15283892;19;20018;-49
2023/08/08 00:18:21;;;;;;;1.98;0.80;;;;;;;11.67;100.00;98197.78;15291106;19;20015;-51
2023/08/08 00:23:46;;;;;;;2.10;0.75;;;;;;;11.68;100.00;98207.56;15292103;19;20024;-51
2023/08/08 00:29:10;;;;;;;2.35;1.00;;;;;;;11.66;100.00;98217.69;15292101;19;20023;-52
2023/08/08 00:34:38;;;;;;;3.17;0.90;;;;;;;11.74;100.00;98213.28;15294396;19;20024;-50
2023/08/08 00:40:06;;;;;;;2.00;0.93;;;;;;;11.79;100.00;98208.22;15286255;19;20580;-48
2023/08/08 00:45:30;;;;;;;3.75;0.90;;;;;;;11.73;100.00;98196.25;15282056;19;20097;-49
2023/08/08 00:50:57;;;;;;;1.42;0.70;;;;;;;11.85;100.00;98212.91;15289687;19;20018;-51
2023/08/08 00:56:23;;;;;;;2.95;0.90;;;;;;;11.83;100.00;98190.63;15292290;19;20082;-51
2023/08/08 01:01:47;;;;;;;0.93;0.73;;;;;;;11.79;100.00;98178.53;15288322;19;20026;-48
2023/08/08 01:07:24;;;;;;;1.00;0.68;;;;;;;11.75;100.00;98186.13;15290561;19;20020;-48
2023/08/08 01:12:53;;;;;;;3.05;0.90;;;;;;;11.86;100.00;98174.09;15282353;19;20035;-50
2023/08/08 01:18:20;;;;;;;1.80;0.80;;;;;;;11.88;100.00;98180.16;14774375;19;10001647;-51
2023/08/08 01:23:54;;;;;;;1.80;0.82;;;;;;;11.91;100.00;98187.91;15287452;19;20038;-49
2023/08/08 01:29:22;;;;;;;2.00;0.80;;;;;;;11.98;100.00;98182.69;15287139;19;20031;-50
2023/08/08 01:34:46;;;;;;;1.52;0.80;;;;;;;12.01;100.00;98185.00;15286869;19;20131;-51
2023/08/08 01:40:14;;;;;;;1.40;0.80;;;;;;;12.11;100.00;98174.81;15285813;19;20010;-51
2023/08/08 01:45:42;;;;;;;2.53;0.93;;;;;;;12.12;100.00;98170.28;15282104;19;20003;-50
2023/08/08 01:51:07;;;;;;;1.27;0.60;;;;;;;12.11;100.00;98157.81;15280506;19;20081;-52
2023/08/08 01:56:32;;;;;;;1.42;0.80;;;;;;;12.00;100.00;98159.88;15286481;19;20014;-52
2023/08/08 02:01:59;;;;;;;2.67;1.00;;;;;;;11.84;100.00;98159.91;15282898;19;20416;-50
2023/08/08 02:07:24;;;;;;;2.10;0.90;;;;;;;11.74;100.00;98162.00;15283918;19;20018;-50
2023/08/08 02:12:48;;;;;;;2.90;0.98;;;;;;;11.64;100.00;98171.16;15284692;19;20018;-50
2023/08/08 02:18:15;;;;;;;1.63;0.70;;;;;;;11.68;100.00;98160.84;15282252;19;20015;-49
2023/08/08 02:23:40;;;;;;;2.40;0.90;;;;;;;11.64;100.00;98163.06;15281049;19;20022;-50
2023/08/08 02:29:05;;;;;;;3.15;1.05;;;;;;;11.61;100.00;98159.88;15284789;19;20073;-50
2023/08/08 02:34:32;;;;;;;2.33;0.80;;;;;;;11.62;100.00;98153.47;15287415;19;20035;-50
2023/08/08 02:39:57;;;;;;;1.52;0.90;;;;;;;11.61;100.00;98149.91;15283223;19;20018;-51
2023/08/08 02:45:21;;;;;;;2.05;0.90;;;;;;;11.61;100.00;98158.00;15283337;19;20030;-51
2023/08/08 02:50:48;;;;;;;1.58;0.80;;;;;;;11.64;100.00;98149.56;15293326;19;20078;-52
2023/08/08 02:56:20;;;;;;;2.25;0.90;;;;;;;11.64;100.00;98157.66;15293841;19;20014;-51
2023/08/08 03:01:46;;;;;;;2.83;1.00;;;;;;;11.61;100.00;98162.56;15295479;19;20021;-48
2023/08/08 03:07:15;;;;;;;2.00;0.90;;;;;;;11.63;100.00;98147.88;15294362;19;20014;-51
2023/08/08 03:12:41;;;;;;;1.60;0.80;;;;;;;11.57;100.00;98154.81;15293904;19;20035;-50
2023/08/08 03:18:08;;;;;;;3.20;1.27;;;;;;;11.55;100.00;98148.75;15298158;19;20014;-47
2023/08/08 03:23:35;;;;;;;1.40;0.80;;;;;;;11.54;100.00;98143.53;15293507;19;20018;-47
2023/08/08 03:29:00;;;;;;;3.20;0.95;;;;;;;11.48;100.00;98136.13;15295674;19;20017;-47
2023/08/08 03:34:29;;;;;;;2.17;0.90;;;;;;;11.41;100.00;98155.72;15296843;19;20479;-50
2023/08/08 03:39:59;;;;;;;3.35;0.80;;;;;;;11.35;100.00;98166.34;15294247;19;20082;-51
2023/08/08 03:45:24;;;;;;;1.48;0.85;;;;;;;11.31;100.00;98155.06;15294704;19;20027;-51
2023/08/08 03:50:48;;;;;;;1.15;0.73;;;;;;;11.30;100.00;98157.91;15287217;19;20014;-56
2023/08/08 03:56:15;;;;;;;3.53;0.80;;;;;;;11.28;100.00;98163.50;15281737;19;20027;-56
2023/08/08 04:01:41;;;;;;;2.15;1.00;;;;;;;11.32;100.00;98167.53;15291459;19;20518;-55
2023/08/08 04:07:06;;;;;;;1.02;0.73;;;;;;;11.38;100.00;98172.22;15291754;19;20042;-54
2023/08/08 04:12:35;;;;;;;1.70;0.80;;;;;;;11.42;100.00;98161.94;15290002;19;20363;-57
2023/08/08 04:18:00;;;;;;;3.10;0.75;;;;;;;11.48;100.00;98149.59;15289802;19;20015;-57
2023/08/08 04:23:25;;;;;;;1.15;0.80;;;;;;;11.53;100.00;98150.78;15289831;19;20025;-51
2023/08/08 04:28:53;;;;;;;1.67;0.75;;;;;;;11.60;100.00;98142.81;15287010;19;20034;-53
2023/08/08 04:34:30;;;;;;;1.50;0.75;;;;;;;11.69;100.00;98136.41;15297483;19;20014;-54
2023/08/08 04:39:55;;;;;;;2.20;0.85;;;;;;;11.74;100.00;98141.25;15293113;19;20074;-54
2023/08/08 04:45:22;;;;;;;1.35;0.90;;;;;;;11.84;100.00;98141.88;15291341;19;20043;-52
2023/08/08 04:50:49;;;;;;;0.82;0.80;;;;;;;11.92;100.00;98132.06;15292009;19;20081;-54
2023/08/08 04:56:14;;;;;;;2.65;0.80;;;;;;;12.01;100.00;98129.19;15293866;19;20355;-57
2023/08/08 05:01:41;;;;;;;3.35;0.75;;;;;;;12.07;100.00;98129.47;15281148;19;20010;-58
2023/08/08 05:07:06;;;;;;;1.40;0.80;;;;;;;12.07;100.00;98127.63;15289962;19;20014;-55
2023/08/08 05:12:31;;;;;;;1.13;0.70;;;;;;;12.09;100.00;98130.13;15289352;19;20098;-56
2023/08/08 05:17:59;;;;;;;1.58;0.80;;;;;;;12.07;100.00;98140.25;15291832;19;20018;-51
2023/08/08 05:23:24;;;;;;;0.95;0.70;;;;;;;11.99;100.00;98163.59;15284694;19;20086;-51
2023/08/08 05:28:48;;;;;;;1.65;1.00;;;;;;;11.90;100.00;98170.03;15291131;19;20028;-54
2023/08/08 05:34:15;;;;;;;2.15;0.90;;;;;;;11.84;100.00;98184.22;15280623;19;20010;-54
2023/08/08 05:39:40;;;;;;;2.05;0.98;;;;;;;11.76;100.00;98206.69;15286194;19;20026;-51
2023/08/08 05:45:05;;;;;;;2.15;1.00;;;;;;;11.70;100.00;98218.19;15290908;19;20017;-56
2023/08/08 05:50:32;;;;;;;1.65;1.10;;;;;;;11.67;100.00;98216.69;15288553;19;20030;-50
2023/08/08 05:55:58;;;;;;;1.80;1.02;;;;;;;11.71;100.00;98203.69;15289559;19;20010;-53
2023/08/08 06:01:23;;;;;;;1.30;0.98;;;;;;;11.76;100.00;98206.69;15286302;19;20038;-52
2023/08/08 06:06:51;;;;;;;1.90;0.90;;;;;;;11.87;100.00;98208.16;15278196;19;20473;-54
2023/08/08 06:12:17;;;;;;;1.70;0.75;;;;;;;11.96;100.00;98200.88;15287117;19;20037;-53
2023/08/08 06:17:42;;;;;;;1.05;0.70;;;;;;;12.00;100.00;98188.72;15289247;19;20010;-52
2023/08/08 06:23:09;;;;;;;1.75;0.80;;;;;;;12.01;100.00;98187.72;15282649;19;20085;-53
2023/08/08 06:28:35;;;;;;;1.35;0.80;;;;;;;12.02;100.00;98187.56;15284773;19;20539;-54
2023/08/08 06:33:59;;;;;;;1.42;0.70;;;;;;;12.10;100.00;98185.81;15284244;19;20042;-52
2023/08/08 06:39:26;;;;;;;1.23;0.80;;;;;;;12.21;100.00;98203.50;15280622;19;20482;-54
2023/08/08 06:44:53;;;;;;;2.00;1.00;;;;;;;12.28;100.00;98235.03;15287453;19;20032;-53
2023/08/08 06:50:18;;;;;;;2.13;0.80;;;;;;;12.36;100.00;98238.69;15284243;19;20066;-54
2023/08/08 06:55:46;;;;;;;2.25;1.00;;;;;;;12.44;100.00;98209.78;15284561;19;20015;-51
2023/08/08 07:01:11;;;;;;;1.77;0.80;;;;;;;12.51;100.00;98209.03;15283212;19;20031;-50
2023/08/08 07:06:36;;;;;;;1.98;0.93;;;;;;;12.59;100.00;98193.63;15279008;19;20025;-54
2023/08/08 07:12:03;;;;;;;1.88;0.98;;;;;;;12.64;100.00;98198.47;15278382;19;20021;-56
2023/08/08 07:17:28;;;;;;;2.17;1.10;;;;;;;12.71;100.00;98204.84;15283709;19;20025;-53
2023/08/08 07:22:53;;;;;;;2.28;0.93;;;;;;;12.81;100.00;98204.59;15282565;19;20015;-53
2023/08/08 07:28:20;;;;;;;1.90;1.00;;;;;;;12.94;100.00;98193.16;15281314;19;20002;-51
2023/08/08 07:33:45;;;;;;;2.17;0.90;;;;;;;13.08;100.00;98188.84;15285157;19;20029;-57
2023/08/08 07:39:09;;;;;;;2.28;0.90;;;;;;;13.23;100.00;98172.63;15292912;19;20497;-53
2023/08/08 07:44:38;;;;;;;1.08;0.90;;;;;;;13.36;100.00;98156.59;15292851;19;20078;-51
2023/08/08 07:50:02;;;;;;;2.45;0.95;;;;;;;13.56;100.00;98148.81;15295283;19;21570;-54
2023/08/08 07:55:27;;;;;;;1.75;1.00;;;;;;;13.64;100.00;98128.88;15297671;19;20377;-53
2023/08/08 08:00:54;;;;;;;1.55;0.85;;;;;;;13.70;100.00;98136.28;15294094;19;20011;-55
2023/08/08 08:06:20;;;;;;;1.05;0.77;;;;;;;13.74;100.00;98144.84;15295423;19;20009;-52
2023/08/08 08:11:44;;;;;;;1.77;0.88;;;;;;;13.77;100.00;98146.34;15290391;19;20010;-52
2023/08/08 08:17:11;;;;;;;1.80;0.82;;;;;;;13.80;100.00;98152.25;15281479;19;20021;-51
2023/08/08 08:22:36;;;;;;;1.83;0.85;;;;;;;13.88;100.00;98145.84;15283583;19;20021;-51
2023/08/08 08:28:01;;;;;;;1.27;0.63;;;;;;;13.95;100.00;98135.09;15280933;19;20021;-52
2023/08/08 08:33:28;;;;;;;1.23;0.80;;;;;;;14.01;100.00;98135.19;15289195;19;20022;-51
2023/08/08 08:38:53;;;;;;;2.72;0.95;;;;;;;14.07;100.00;98117.31;15295120;19;20498;-53
2023/08/08 08:44:18;;;;;;;2.03;0.75;;;;;;;14.17;100.00;98107.00;15289198;19;20084;-56
2023/08/08 08:49:47;;;;;;;1.77;0.70;;;;;;;14.31;100.00;98107.16;15285724;19;20006;-53
2023/08/08 08:55:19;;;;;;;2.25;0.70;;;;;;;14.54;100.00;98096.13;15294147;19;20018;-56
2023/08/08 09:00:45;;;;;;;2.00;0.60;;;;;;;14.70;100.00;98076.06;15291868;19;20031;-51
2023/08/08 09:06:16;;;;;;;2.58;0.60;;;;;;;14.89;100.00;98076.41;15291566;19;20018;-54
2023/08/08 09:11:41;;;;;;;1.83;0.70;;;;;;;15.00;100.00;98069.59;15291400;19;20459;-57
2023/08/08 09:17:07;;;;;;;0.85;0.60;;;;;;;15.12;100.00;98064.44;15292150;19;20020;-54
2023/08/08 09:22:34;;;;;;;0.85;0.60;;;;;;;15.24;100.00;98054.69;15282336;19;20097;-56
2023/08/08 09:28:01;;;;;;;0.45;0.43;;;;;;;15.49;100.00;98048.78;15290438;19;20021;-55
2023/08/08 09:33:26;;;;;;;0.70;0.60;;;;;;;15.67;100.00;98049.06;15288497;19;20086;-53
2023/08/08 09:38:54;;;;;;;0.82;0.50;;;;;;;15.90;100.00;98034.31;15285832;19;20471;-54
2023/08/08 09:44:19;;;;;;;0.82;0.50;;;;;;;16.26;100.00;98024.97;15290148;19;20018;-56
2023/08/08 09:49:44;;;;;;;1.38;0.70;;;;;;;16.73;100.00;98015.97;15281161;19;20078;-55
2023/08/08 09:55:20;;;;;;;1.08;0.52;;;;;;;16.94;100.00;98002.16;15281225;19;20014;-54
2023/08/08 10:00:45;;;;;;;1.63;0.60;;;;;;;17.42;100.00;97989.22;15285382;19;20025;-57
2023/08/08 10:06:10;;;;;;;0.95;0.60;;;;;;;17.60;100.00;97993.97;15284744;19;20034;-57
2023/08/08 10:11:38;;;;;;;3.38;0.63;;;;;;;17.70;100.00;97990.75;15286500;19;20436;-51
2023/08/08 10:17:05;;;;;;;3.15;0.60;;;;;;;17.65;100.00;97998.75;15286752;19;20018;-52
2023/08/08 10:22:31;;;;;;;1.38;0.50;;;;;;;17.90;100.00;97984.38;15278912;19;20021;-53
2023/08/08 10:27:59;;;;;;;1.05;0.50;;;;;;;17.70;100.00;97982.56;15284544;19;20018;-52
2023/08/08 10:33:45;;;;;;;1.35;0.60;;;;;;;17.68;100.00;97971.09;15284488;19;20363;-54
2023/08/08 10:39:03;;;;;;;1.13;0.70;;;;;;;17.56;100.00;97970.94;15287951;19;20034;-53
2023/08/08 10:44:34;;;;;;;1.52;0.50;;;;;;;17.61;100.00;97968.41;15286834;19;20025;-56
2023/08/08 10:50:01;;;;;;;0.85;0.57;;;;;;;17.89;100.00;97982.69;15277873;19;20010;-53
2023/08/08 10:55:30;;;;;;;1.15;0.50;;;;;;;18.05;100.00;97960.38;15247503;19;20015;-57
2023/08/08 11:01:01;;;;;;;0.98;0.57;;;;;;;18.00;100.00;97952.03;15283603;19;20017;-56
2023/08/08 11:06:26;;;;;;;1.17;0.43;;;;;;;18.19;100.00;97942.03;15284154;19;20739;-56
2023/08/08 11:11:54;;;;;;;2.90;0.50;;;;;;;18.32;100.00;97933.75;15293699;19;20468;-57
2023/08/08 11:17:23;;;;;;;1.35;0.57;;;;;;;18.19;100.00;97952.94;15298252;19;20094;-57
2023/08/08 11:22:52;;;;;;;6.35;0.75;;;;;;;18.29;100.00;97946.97;15294328;19;20046;-56
2023/08/08 11:28:19;;;;;;;1.38;0.30;;;;;;;18.22;100.00;97940.75;15285828;19;20017;-52
2023/08/08 11:33:49;;;;;;;0.98;0.60;;;;;;;18.16;100.00;97943.31;15293367;19;20058;-57
2023/08/08 11:39:16;;;;;;;0.55;0.50;;;;;;;18.22;100.00;97959.84;15294467;19;20370;-56
2023/08/08 11:44:42;;;;;;;1.65;0.60;;;;;;;18.08;100.00;97935.41;15296592;19;20033;-55
2023/08/08 11:50:11;;;;;;;0.68;0.50;;;;;;;18.47;100.00;97938.84;15290201;19;20086;-53
2023/08/08 11:55:41;;;;;;;0.90;0.50;;;;;;;18.99;100.00;97947.78;15297671;19;20091;-55
2023/08/08 12:01:08;;;;;;;0.90;0.40;;;;;;;19.26;98.78;97934.63;15283596;19;20078;-55
2023/08/08 12:06:42;;;;;;;1.02;0.60;;;;;;;19.25;79.15;97949.34;15294491;19;20086;-54
2023/08/08 12:12:08;;;;;;;0.82;0.55;;;;;;;19.28;88.79;97943.44;15296923;19;20010;-56
2023/08/08 12:17:39;;;;;;;0.52;0.30;;;;;;;18.96;89.81;97946.34;15300480;19;20017;-58
2023/08/08 12:23:06;;;;;;;2.53;0.60;;;;;;;18.83;97.56;97924.63;15291458;19;20066;-54
2023/08/08 12:28:33;;;;;;;1.08;0.52;;;;;;;19.14;93.19;97909.16;15288417;19;20020;-55
2023/08/08 12:33:58;;;;;;;1.15;0.43;;;;;;;19.14;100.00;97947.41;15285933;19;20014;-57
2023/08/08 12:39:28;;;;;;;0.60;0.60;;;;;;;19.36;91.81;97955.97;15292878;19;20471;-58
2023/08/08 12:44:53;;;;;;;1.15;0.50;;;;;;;19.43;100.00;97928.56;15293583;19;20074;-57
2023/08/08 12:50:19;;;;;;;0.95;0.65;;;;;;;19.00;99.74;97944.81;15289529;19;20408;-61
2023/08/08 12:55:46;;;;;;;3.47;0.50;;;;;;;18.57;100.00;97948.41;15293843;19;20049;-58
2023/08/08 13:01:11;;;;;;;1.13;0.60;;;;;;;18.44;100.00;97947.47;15287518;19;20533;-58
2023/08/08 13:06:35;;;;;;;3.25;0.50;;;;;;;18.92;100.00;97950.56;15286352;19;20432;-57
2023/08/08 13:12:03;;;;;;;1.60;0.70;;;;;;;19.03;100.00;97946.28;15286801;19;20078;-55
2023/08/08 13:17:27;;;;;;;1.23;0.47;;;;;;;18.94;100.00;97964.84;15289676;19;20057;-57
2023/08/08 13:22:52;;;;;;;1.05;0.60;;;;;;;18.83;100.00;97936.38;15286485;19;20020;-57
2023/08/08 13:28:19;;;;;;;0.93;0.60;;;;;;;18.82;100.00;97951.06;15285089;19;20378;-56
2023/08/08 13:33:44;;;;;;;1.73;0.70;;;;;;;18.39;100.00;97965.56;15274294;19;20016;-58
2023/08/08 13:39:09;;;;;;;1.30;0.63;;;;;;;17.93;100.00;97992.09;15276133;19;20010;-56
2023/08/08 13:44:37;;;;;;;1.48;0.68;;;;;;;17.21;100.00;97998.50;15280628;19;20077;-57
2023/08/08 13:50:01;;;;;;;0.52;0.50;;;;;;;16.78;100.00;98021.59;15287982;19;20086;-54
2023/08/08 13:55:38;;;;;;;1.00;0.50;;;;;;;16.47;100.00;98002.16;15285781;19;20014;-52
2023/08/08 14:01:07;;;;;;;1.25;0.65;;;;;;;16.36;100.00;97999.25;15286158;19;20010;-52
2023/08/08 14:06:31;;;;;;;1.23;0.65;;;;;;;16.26;100.00;97999.66;15285366;19;20017;-52
2023/08/08 14:11:58;;;;;;;2.00;0.90;;;;;;;16.21;100.00;97992.13;15281564;19;20121;-53
2023/08/08 14:17:28;;;;;;;1.58;0.70;;;;;;;16.09;100.00;98023.69;15290437;19;20006;-57
2023/08/08 14:22:53;;;;;;;1.05;0.60;;;;;;;15.64;100.00;98063.03;15287010;19;20018;-57
2023/08/08 14:28:17;;;;;;;2.60;0.80;;;;;;;15.07;100.00;98068.59;15287145;19;20017;-53
2023/08/08 14:33:49;;;;;;;2.22;0.90;;;;;;;14.57;100.00;98090.31;15286209;19;20018;-57
2023/08/08 14:39:13;;;;;;;1.42;0.77;;;;;;;14.43;100.00;98097.47;15281652;19;20021;-55
2023/08/08 14:44:39;;;;;;;2.72;0.90;;;;;;;14.38;100.00;98097.22;15304446;19;20025;-53
2023/08/08 14:50:08;;;;;;;1.67;0.98;;;;;;;14.29;100.00;98099.22;15315220;19;20025;-56
2023/08/08 14:55:39;;;;;;;1.17;0.75;;;;;;;14.32;100.00;98089.88;15312258;19;20014;-53
2023/08/08 15:01:05;;;;;;;2.33;0.90;;;;;;;14.24;100.00;98096.25;15314447;19;20022;-57
2023/08/08 15:06:32;;;;;;;0.70;0.70;;;;;;;14.29;100.00;98104.66;15316189;19;20090;-55
2023/08/08 15:11:57;;;;;;;2.25;0.70;;;;;;;14.45;100.00;98108.13;15308791;19;20003;-54
2023/08/08 15:17:22;;;;;;;1.65;0.70;;;;;;;14.50;100.00;98111.09;15309334;19;20474;-59
2023/08/08 15:22:50;;;;;;;1.30;0.80;;;;;;;14.57;100.00;98112.00;15312130;19;20019;-56
2023/08/08 15:28:16;;;;;;;2.00;0.90;;;;;;;14.78;100.00;98094.06;15312056;19;20240;-52
2023/08/08 15:33:42;;;;;;;1.42;0.70;;;;;;;15.12;100.00;98088.84;15310172;19;20426;-58
2023/08/08 15:39:09;;;;;;;1.50;0.88;;;;;;;15.33;100.00;98074.38;15312851;19;20366;-56
2023/08/08 15:44:36;;;;;;;1.73;0.70;;;;;;;15.51;100.00;98074.69;15310104;19;20022;-54
2023/08/08 15:50:02;;;;;;;1.25;0.73;;;;;;;15.71;100.00;98068.50;15310878;19;20018;-79
2023/08/08 15:55:30;;;;;;;1.55;0.70;;;;;;;15.75;100.00;98064.34;15318568;19;20018;-80
2023/08/08 16:00:55;;;;;;;1.08;0.70;;;;;;;15.86;100.00;98062.94;15319129;19;20026;-80
2023/08/08 16:06:20;;;;;;;1.65;0.65;;;;;;;15.87;100.00;98067.34;15317150;19;20082;-80
2023/08/08 16:11:47;;;;;;;1.25;0.77;;;;;;;15.93;100.00;98073.81;15304135;19;20363;-79
2023/08/08 16:17:12;;;;;;;3.90;0.85;;;;;;;15.91;100.00;98073.19;15298164;19;20059;-80
2023/08/08 16:22:36;;;;;;;2.08;0.90;;;;;;;15.92;100.00;98080.28;15304366;19;20868;-79
2023/08/08 16:28:04;;;;;;;1.13;0.80;;;;;;;15.82;100.00;98086.94;15308942;19;20019;-79
2023/08/08 16:33:28;;;;;;;1.25;0.70;;;;;;;15.86;100.00;98071.09;15312686;19;20023;-79
2023/08/08 16:38:53;;;;;;;2.30;0.70;;;;;;;15.93;100.00;98074.69;15312809;19;20015;-79
2023/08/08 16:44:38;;;;;;;1.20;0.70;;;;;;;16.09;100.00;98064.47;15314531;19;20325;-79
2023/08/08 16:50:03;;;;;;;1.10;0.70;;;;;;;16.16;100.00;98057.16;15328080;19;20014;-80
2023/08/08 16:55:28;;;;;;;1.55;0.70;;;;;;;16.16;100.00;98060.72;15352991;19;20472;-80
2023/08/08 17:00:57;;;;;;;1.23;0.77;;;;;;;16.17;100.00;98066.97;15300969;19;20497;-79
2023/08/08 17:06:21;;;;;;;2.10;0.77;;;;;;;16.25;100.00;98057.78;15300139;19;20393;-79
2023/08/08 17:11:47;;;;;;;2.55;0.70;;;;;;;16.18;100.00;98055.06;15300416;19;20014;-79
2023/08/08 17:17:14;;;;;;;1.80;0.90;;;;;;;16.12;100.00;98070.31;15304375;19;20085;-79
2023/08/08 17:22:40;;;;;;;1.80;0.85;;;;;;;15.99;100.00;98062.97;15292562;19;20093;-80
2023/08/08 17:28:04;;;;;;;1.20;0.65;;;;;;;15.95;100.00;98064.41;15307426;19;20014;-80
2023/08/08 17:33:32;;;;;;;2.50;0.82;;;;;;;15.88;100.00;98060.03;15306414;19;20014;-79
2023/08/08 17:38:56;;;;;;;1.75;0.70;;;;;;;15.88;100.00;98050.00;15305495;19;20019;-79
2023/08/08 17:44:27;;;;;;;2.00;0.85;;;;;;;15.86;100.00;98052.06;15292705;19;20014;-59
2023/08/08 17:49:55;;;;;;;1.63;0.73;;;;;;;15.75;100.00;98047.19;15290464;19;20669;-55
2023/08/08 17:55:19;;;;;;;1.20;0.70;;;;;;;15.71;100.00;98058.47;15278812;19;20027;-55
2023/08/08 18:00:44;;;;;;;1.60;0.75;;;;;;;15.67;100.00;98050.94;15291352;19;20017;-56
2023/08/08 18:06:11;;;;;;;2.03;0.82;;;;;;;15.65;100.00;98058.44;15285545;19;20466;-54
2023/08/08 18:11:38;;;;;;;0.77;0.73;;;;;;;15.52;100.00;98070.09;15280982;19;20023;-58
2023/08/08 18:17:02;;;;;;;1.63;0.70;;;;;;;15.49;100.00;98070.50;15281917;19;20395;-56
2023/08/08 18:22:30;;;;;;;2.72;1.00;;;;;;;15.23;100.00;98074.72;15288183;19;20077;-57
2023/08/08 18:27:48;;;;;;;2.28;0.75;;;;;;;14.99;100.00;98085.06;15275484;19;20014;-57
2023/08/08 18:33:13;;;;;;;1.08;0.70;;;;;;;14.77;100.00;98098.63;15289456;19;20006;-59
2023/08/08 18:38:42;;;;;;;1.52;0.70;;;;;;;14.60;100.00;98095.34;15283866;19;20050;-59
2023/08/08 18:44:06;;;;;;;1.58;0.77;;;;;;;14.44;100.00;98099.16;15284949;19;20015;-54
2023/08/08 18:49:38;;;;;;;1.63;0.70;;;;;;;14.36;100.00;98104.72;15285582;19;20491;-56
2023/08/08 18:55:07;;;;;;;1.83;0.85;;;;;;;14.35;100.00;98094.91;15285647;19;20018;-55
2023/08/08 19:00:32;;;;;;;1.92;0.70;;;;;;;14.36;100.00;98101.16;15277343;19;20495;-57
2023/08/08 19:05:57;;;;;;;1.40;0.70;;;;;;;14.30;100.00;98110.88;15284410;19;20046;-57
2023/08/08 19:11:24;;;;;;;1.20;0.70;;;;;;;14.28;100.00;98099.44;15294471;19;20560;-57
2023/08/08 19:16:49;;;;;;;1.45;0.65;;;;;;;14.15;100.00;98103.69;15277260;19;20074;-58
2023/08/08 19:22:13;;;;;;;1.05;0.70;;;;;;;14.03;100.00;98094.38;15278273;19;20078;-57
2023/08/08 19:27:41;;;;;;;1.73;0.80;;;;;;;13.95;100.00;98094.47;15275204;19;20014;-57
2023/08/08 19:33:05;;;;;;;1.05;0.60;;;;;;;13.98;100.00;98078.72;15281827;19;20021;-54
2023/08/08 19:38:31;;;;;;;1.65;0.73;;;;;;;13.97;100.00;98081.59;15296280;19;20025;-57
2023/08/08 19:44:05;;;;;;;2.08;0.70;;;;;;;13.99;100.00;98072.22;15297330;19;20027;-57
2023/08/08 19:49:31;;;;;;;1.05;0.60;;;;;;;13.99;100.00;98082.25;15298143;19;20023;-57
2023/08/08 19:54:55;;;;;;;3.10;0.90;;;;;;;14.10;100.00;98075.50;15297737;19;20010;-57
2023/08/08 20:00:23;;;;;;;0.85;0.60;;;;;;;14.13;100.00;98073.22;15299163;19;20018;-57
2023/08/08 20:05:47;;;;;;;2.17;0.80;;;;;;;14.13;100.00;98070.53;15287376;19;20026;-57
2023/08/08 20:11:12;;;;;;;1.63;0.70;;;;;;;14.22;100.00;98079.38;15292874;19;20358;-53
2023/08/08 20:16:39;;;;;;;1.13;0.70;;;;;;;14.22;100.00;98068.53;15293239;19;20010;-56
2023/08/08 20:22:05;;;;;;;1.75;0.90;;;;;;;14.18;100.00;98070.75;15298227;19;20097;-58
2023/08/08 20:27:29;;;;;;;2.00;0.90;;;;;;;14.23;100.00;98069.34;15291982;19;20356;-55
2023/08/08 20:32:57;;;;;;;5.32;0.90;;;;;;;14.25;100.00;98075.44;15293110;19;20015;-59
2023/08/08 20:38:22;;;;;;;2.08;0.80;;;;;;;14.20;100.00;98062.47;15284972;19;20014;-56
2023/08/08 20:43:47;;;;;;;2.05;0.88;;;;;;;14.21;100.00;98061.44;15294519;19;20021;-59
2023/08/08 20:49:14;;;;;;;1.67;0.70;;;;;;;14.22;100.00;98067.69;15296790;19;20082;-56
2023/08/08 20:54:39;;;;;;;2.65;0.70;;;;;;;14.17;100.00;98063.66;15293315;19;20022;-56
2023/08/08 21:00:04;;;;;;;2.70;0.88;;;;;;;14.09;100.00;98065.69;15272027;19;20070;-56
2023/08/08 21:05:31;;;;;;;1.38;0.50;;;;;;;14.03;100.00;98078.13;15289827;19;20010;-58
2023/08/08 21:10:55;;;;;;;3.45;0.77;;;;;;;14.07;100.00;98074.00;15285759;19;20418;-58
2023/08/08 21:16:20;;;;;;;1.48;0.80;;;;;;;14.01;100.00;98081.00;15292419;19;20035;-58
2023/08/08 21:21:47;;;;;;;2.05;0.70;;;;;;;13.97;100.00;98077.03;15294224;19;20014;-59
2023/08/08 21:27:12;;;;;;;1.13;0.68;;;;;;;13.89;100.00;98077.13;15288921;19;20490;-59
2023/08/08 21:32:37;;;;;;;2.30;0.70;;;;;;;13.90;100.00;98080.69;15287652;19;20499;-58
2023/08/08 21:38:06;;;;;;;2.45;0.88;;;;;;;13.91;100.00;98079.66;15280143;19;20013;-58
2023/08/08 21:43:30;;;;;;;2.45;0.70;;;;;;;13.90;100.00;98077.97;15284586;19;20018;-56
2023/08/08 21:48:55;;;;;;;2.67;0.80;;;;;;;13.92;100.00;98081.34;15292386;19;20011;-59
2023/08/08 21:54:22;;;;;;;3.42;0.68;;;;;;;13.86;100.00;98069.41;15290112;19;20014;-58
2023/08/08 21:59:47;;;;;;;1.05;0.70;;;;;;;13.84;100.00;98064.16;15292912;19;20375;-57
2023/08/08 22:05:24;;;;;;;2.25;0.80;;;;;;;13.85;100.00;98065.03;15290070;19;20015;-59
2023/08/08 22:10:52;;;;;;;1.70;0.88;;;;;;;13.85;100.00;98070.44;15286001;19;20017;-58
2023/08/08 22:16:16;;;;;;;2.72;0.70;;;;;;;13.86;100.00;98086.47;15281489;19;20477;-58
2023/08/08 22:21:41;;;;;;;2.35;0.88;;;;;;;13.84;100.00;98069.56;15288247;19;20028;-57
2023/08/08 22:27:08;;;;;;;1.42;0.80;;;;;;;13.93;100.00;98072.19;15287178;19;20021;-53
2023/08/08 22:32:33;;;;;;;2.58;0.65;;;;;;;13.92;100.00;98090.28;15288345;19;20032;-57
2023/08/08 22:37:57;;;;;;;1.27;0.80;;;;;;;13.94;100.00;98085.53;15286409;19;20338;-58
2023/08/08 22:43:25;;;;;;;1.65;0.73;;;;;;;13.98;100.00;98089.53;15282275;19;20082;-53
2023/08/08 22:48:49;;;;;;;2.50;0.70;;;;;;;13.98;100.00;98081.41;15304229;19;20033;-56
2023/08/08 22:54:14;;;;;;;1.10;0.50;;;;;;;14.03;100.00;98088.97;15284919;19;20029;-56
2023/08/08 22:59:42;;;;;;;1.35;0.75;;;;;;;14.03;100.00;98081.66;15286650;19;20029;-55
2023/08/08 23:05:07;;;;;;;1.83;0.80;;;;;;;14.01;100.00;98091.03;15292800;19;20021;-58
2023/08/08 23:10:31;;;;;;;3.75;1.38;;;;;;;14.01;100.00;98086.44;15302389;19;20025;-60
2023/08/08 23:15:59;;;;;;;2.90;0.80;;;;;;;14.04;100.00;98079.81;15292130;19;20102;-60
2023/08/08 23:21:23;;;;;;;3.65;0.80;;;;;;;14.01;100.00;98077.47;15301463;19;20020;-60
2023/08/08 23:26:48;;;;;;;1.30;0.70;;;;;;;13.93;100.00;98077.59;15298456;19;20017;-58
2023/08/08 23:32:16;;;;;;;2.20;0.85;;;;;;;13.85;100.00;98076.69;15298778;19;20017;-58
2023/08/08 23:37:40;;;;;;;1.58;0.82;;;;;;;13.75;100.00;98076.16;15295508;19;20652;-56
2023/08/08 23:43:05;;;;;;;2.05;0.90;;;;;;;13.71;100.00;98069.41;15301288;19;20029;-58
2023/08/08 23:48:32;;;;;;;3.63;0.95;;;;;;;13.64;100.00;98073.94;15287628;19;20023;-58
2023/08/08 23:53:57;;;;;;;1.17;0.75;;;;;;;13.59;100.00;98070.94;15295719;19;20385;-59
2023/08/08 23:59:25;;;;;;;1.13;0.70;;;;;;;13.52;100.00;98057.34;15301152;19;20012;-58
